Home > Products > Valid Products > MTR

000
SAUS42 KCHS 231857
MTRNBC
METAR KNBC 231856Z AUTO 12009KT 3SM -RA BR OVC005 19/18 A2992 RMK
AO2 SLP131 P0015 T01890183 $





000
SAUS42 KCHS 231845
MTRNBC
SPECI KNBC 231844Z AUTO 11011KT 2SM RA BR BKN005 OVC011 19/18 A2992
RMK AO2 P0014 T01890178 $





000
SAUS42 KCHS 231817
MTRNBC
SPECI KNBC 231816Z AUTO 10009KT 1 3/4SM RA BR BKN005 BKN010 OVC015
18/18 A2994 RMK AO2 P0004 T01830178 $





000
SAUS42 KCHS 231810
MTRNBC
SPECI KNBC 231809Z AUTO 10010KT 5SM -RA BR BKN005 OVC013 18/18 A2995
RMK AO2 P0000 T01830178 $





000
SAUS42 KCHS 231757
MTRNBC
METAR KNBC 231756Z AUTO 10009KT 3SM -RA BR SCT005 OVC013 18/17 A2996
RMK AO2 PRESFR SLP146 P0015 60078 T01830172 10183 20150 58038 $





000
SAUS42 KCHS 231748
MTRNBC
SPECI KNBC 231747Z AUTO 11008KT 2SM RA BR BKN005 OVC011 18/17 A2998
RMK AO2 P0014 T01780172 $





000
SAUS42 KCHS 231726
MTRNBC
SPECI KNBC 231725Z AUTO 11009KT 1 1/2SM +RA BR BKN005 OVC010 18/17
A3000 RMK AO2 P0007 T01780172 $





000
SAUS42 KCHS 231714
MTRNBC
SPECI KNBC 231713Z AUTO 09011KT 2 1/2SM RA BR BKN005 OVC020 18/17
A3000 RMK AO2 P0002 T01830172 $





000
SAUS42 KCHS 231657
MTRNBC
METAR KNBC 231656Z AUTO 10007KT 2 1/2SM RA BR BKN004 OVC047 18/17
A3001 RMK AO2 SLP161 P0008 T01780167 $





000
SAUS42 KCHS 231645
MTRNBC
SPECI KNBC 231644Z AUTO 09006KT 5SM -RA BR BKN004 BKN046 OVC060
17/17 A3002 RMK AO2 P0005 T01720167 $





000
SAUS42 KCHS 231557
MTRNBC
METAR KNBC 231556Z AUTO 09011KT 8SM -RA OVC005 17/16 A3006 RMK AO2
RAE22B47 CIG 003V009 SLP178 P0004 T01670156 $





000
SAUS42 KCHS 231538
MTRNBC
SPECI KNBC 231537Z AUTO 09011G19KT 10SM OVC004 17/16 A3004 RMK AO2
RAE22 P0003 T01670156 $





000
SAUS42 KCHS 231538
MTRNBC
SPECI KNBC 231537Z AUTO 09011G19KT 10SM OVC004 17/16 A3004 RMK AO2
RAE22 P0003 T01670156 $





000
SAUS42 KCHS 231520
MTRNBC
SPECI KNBC 231519Z AUTO 08010KT 8SM -RA BKN003 BKN030 OVC046 16/15
A3006 RMK AO2 P0003 T01610150 $





000
SAUS42 KCHS 231513
MTRNBC
SPECI KNBC 231511Z AUTO 08011KT 3SM -RA BR SCT004 BKN034 OVC060
16/15 A3007 RMK AO2 P0003 T01560150 $





000
SAUS42 KCHS 231501
MTRNBC
SPECI KNBC 231500Z AUTO 07010KT 1 3/4SM +RA BR FEW008 SCT045 OVC060
16/14 A3006 RMK AO2 PRESFR P0002 T01560144 $





000
SAUS42 KCHS 231457
MTRNBC
METAR KNBC 231456Z AUTO 08010G15KT 2 1/2SM +RA BR FEW028 BKN041
OVC060 16/14 A3007 RMK AO2 PRESFR SLP183 P0017 60051 T01560144 56014
$





000
SAUS42 KCHS 231439
MTRNBC
SPECI KNBC 231438Z AUTO 07007KT 050V110 3SM -RA BR SCT006 BKN035
OVC060 16/14 A3010 RMK AO2 P0015 T01560144 $





000
SAUS42 KCHS 231436
MTRNBC
SPECI KNBC 231435Z AUTO 06008KT 1 3/4SM -RA BR SCT006 BKN028 OVC060
16/14 A3010 RMK AO2 P0014 T01560144 $





000
SAUS42 KCHS 231426
MTRNBC
SPECI KNBC 231425Z AUTO 07009G14KT 1 1/2SM +RA BR BKN004 BKN015
OVC022 15/14 A3009 RMK AO2 P0011 T01500144 $





000
SAUS42 KCHS 231418
MTRNBC
SPECI KNBC 231417Z AUTO 08006KT 2SM +RA BR OVC004 15/14 A3010 RMK
AO2 P0006 T01500144 $





000
SAUS42 KCHS 231358
MTRNBC
METAR KNBC 231356Z AUTO 05010G16KT 3SM -RA BR OVC005 15/14 A3008 RMK
AO2 SLP185 P0018 T01500139 $





000
SAUS42 KCHS 231351
MTRNBC
SPECI KNBC 231349Z AUTO 07009KT 3SM RA BR OVC005 15/14 A3009 RMK AO2
P0017 T01500139 $





000
SAUS42 KCHS 231339
MTRNBC
SPECI KNBC 231338Z AUTO 06009G19KT 2 1/2SM RA BR BKN005 OVC044 15/14
A3009 RMK AO2 P0015 T01500139 $





000
SAUS42 KCHS 231327
MTRNBC
SPECI KNBC 231326Z AUTO 06010G19KT 2SM +RA BR BKN006 OVC046 15/14
A3009 RMK AO2 P0009 T01500139 $





000
SAUS42 KCHS 231257
MTRNBC
METAR KNBC 231256Z AUTO 06011G19KT 4SM RA BR BKN006 OVC015 15/14
A3009 RMK AO2 SLP191 P0016 T01500139 $





000
SAUS42 KCHS 231226
MTRNBC
SPECI KNBC 231225Z AUTO 06012KT 4SM RA BR BKN006 OVC015 16/14 A3011
RMK AO2 P0010 T01560144 $





000
SAUS42 KCHS 231158
MTRNBC
METAR KNBC 231156Z AUTO 06009KT 4SM +RA BR OVC005 16/14 A3011 RMK
AO2 SLP198 P0018 60037 70038 T01560144 10156 20139 58004 $





000
SAUS42 KCHS 231153
MTRNBC
SPECI KNBC 231152Z AUTO 05009KT 4SM +RA BR OVC005 16/14 A3012 RMK
AO2 P0017 $





000
SAUS42 KCHS 231123
MTRNBC
SPECI KNBC 231121Z AUTO 06007KT 5SM RA BR BKN006 OVC017 16/14 A3012
RMK AO2 P0006 T01560144 $





000
SAUS42 KCHS 231057
MTRNBC
METAR KNBC 231056Z AUTO 05010KT 5SM RA BR FEW007 BKN019 OVC024 16/14
A3013 RMK AO2 SLP202 P0009 T01560144 $





000
SAUS42 KCHS 231042
MTRNBC
SPECI KNBC 231041Z AUTO 06009KT 7SM -RA BKN021 OVC034 16/14 A3013
RMK AO2 P0007 T01560144 $





000
SAUS42 KCHS 230957
MTRNBC
METAR KNBC 230956Z AUTO 06009KT 8SM -RA FEW028 OVC048 15/14 A3013
RMK AO2 SLP202 P0005 T01500139 $





000
SAUS42 KCHS 230957
MTRNBC
METAR KNBC 230956Z AUTO 06009KT 8SM -RA FEW028 OVC048 15/14 A3013
RMK AO2 SLP202 P0005 T01500139 $





000
SAUS42 KCHS 230857
MTRNBC
METAR KNBC 230856Z AUTO 05007KT 7SM -RA FEW034 BKN060 OVC110 14/13
A3015 RMK AO2 RAB30 SLP210 P0003 60005 T01440133 56024 $





000
SAUS42 KCHS 230757
MTRNBC
METAR KNBC 230756Z AUTO 04007KT 10SM OVC036 14/13 A3017 RMK AO2
RAE03B19E32 SLP217 P0000 T01440133 $





000
SAUS42 KCHS 230657
MTRNBC
METAR KNBC 230656Z AUTO 05007KT 7SM -RA FEW038 OVC070 14/13 A3019
RMK AO2 RAB26 SLP224 P0002 T01390128 $





000
SAUS42 KCHS 230557
MTRNBC
METAR KNBC 230556Z AUTO 05006KT 10SM OVC075 14/13 A3022 RMK AO2
RAB24E45 SLP234 P0000 60001 T01390128 10139 20133 58020 $





000
SAUS42 KCHS 230457
MTRNBC
METAR KNBC 230456Z AUTO 05004KT 10SM OVC080 14/13 A3025 RMK AO2
RAB07E44 SLP244 P0001 T01390128 401890050 $





000
SAUS42 KCHS 230457
MTRNBC
METAR KNBC 230456Z AUTO 05004KT 10SM OVC080 14/13 A3025 RMK AO2
RAB07E44 SLP244 P0001 T01390128 401890050 $





000
SAUS42 KCHS 230357
MTRNBC
METAR KNBC 230356Z AUTO 04004KT 10SM OVC090 14/12 A3027 RMK AO2
RAB41E52 SLP250 P0000 T01390122 $





000
SAUS42 KCHS 230357
MTRNBC
METAR KNBC 230356Z AUTO 04004KT 10SM OVC090 14/12 A3027 RMK AO2
RAB41E52 SLP250 P0000 T01390122 $





000
SAUS42 KCHS 230257
MTRNBC
METAR KNBC 230256Z AUTO 06005KT 10SM SCT100 BKN120 14/12 A3028 RMK
AO2 SLP254 60000 T01390117 56010 $





000
SAUS42 KCHS 230157
MTRNBC
METAR KNBC 230156Z AUTO 05005KT 10SM BKN110 13/12 A3029 RMK AO2
SLP258 T01330117 $





000
SAUS42 KCHS 230057
MTRNBC
METAR KNBC 230056Z AUTO 06007KT 10SM SCT110 14/11 A3030 RMK AO2
RAB28E54 SLP260 P0000 T01390111 $





000
SAUS42 KCHS 222357
MTRNBC
METAR KNBC 222356Z AUTO 06008KT 10SM SCT120 14/11 A3031 RMK AO2
SLP264 T01390106 10189 20133 58012 $





000
NZUS52 KCHS 222304 CCA
MTRCHL

METAR KCHL COR 222258Z 13/  RMK PRECIP COUNTER 001.37 RH83








000
NZUS52 KCHS 222304 CCA
MTRCHL

METAR KCHL COR 222258Z 13/  RMK PRECIP COUNTER 001.37 RH83







000
SAUS42 KCHS 222257
MTRNBC
METAR KNBC 222256Z AUTO 07007KT 10SM SCT070 BKN120 14/11 A3033 RMK
AO2 SLP269 T01440106 $





000
SAUS42 KCHS 222157
MTRNBC
METAR KNBC 222156Z AUTO 09008KT 10SM OVC070 16/11 A3034 RMK AO2
SLP273 T01560106 $





000
SAUS42 KCHS 222157
MTRNBC
METAR KNBC 222156Z AUTO 09008KT 10SM OVC070 16/11 A3034 RMK AO2
SLP273 T01560106 $





000
SAUS42 KCHS 222057
MTRNBC
METAR KNBC 222056Z AUTO 10008KT 10SM OVC065 17/10 A3035 RMK AO2
SLP276 T01670100 56018 $





000
SAUS42 KCHS 221957
MTRNBC
METAR KNBC 221956Z AUTO 11009KT 10SM FEW065 18/10 A3036 RMK AO2
SLP280 T01780100 $





000
SAUS42 KCHS 221857
MTRNBC
METAR KNBC 221856Z AUTO 10009KT 10SM CLR 18/09 A3037 RMK AO2 SLP283
T01830094 $





000
SAUS42 KCHS 221757
MTRNBC
METAR KNBC 221756Z AUTO 07007KT 10SM CLR 18/08 A3040 RMK AO2 SLP293
T01780083 10178 20056 58031 $





000
SAUS42 KCHS 221657
MTRNBC
METAR KNBC 221656Z AUTO 06006G15KT 10SM CLR 17/07 A3044 RMK AO2
SLP310 T01670072 $





000
SAUS42 KCHS 221557
MTRNBC
METAR KNBC 221556Z AUTO 05007G16KT 10SM CLR 16/06 A3047 RMK AO2
SLP317 T01560061 $





000
SAUS42 KCHS 221457
MTRNBC
METAR KNBC 221456Z 05010G17KT 10SM CLR 13/05 A3049 RMK AO2 SLP324
LAST T01330050 51005 $





000
SAUS42 KCHS 221357
MTRNBC
METAR KNBC 221356Z 05009KT 10SM CLR 11/04 A3048 RMK AO2 SLP322
T01110039 $





000
SAUS42 KCHS 221336
MTRNBC
SPECI KNBC 221335Z 04007KT 10SM CLR 09/03 A3048 RMK AO2 T00940033 $





000
SAUS42 KCHS 221257
MTRNBC
METAR KNBC 221256Z AUTO 04006KT 10SM CLR 07/02 A3048 RMK AO2 SLP321
T00720022 $





000
SAUS42 KCHS 221157
MTRNBC
METAR KNBC 221156Z AUTO 02007KT 10SM CLR 05/01 A3047 RMK AO2 SLP319
T00500011 10083 20050 53003 $





000
SAUS42 KCHS 221057
MTRNBC
METAR KNBC 221056Z AUTO 04006KT 10SM CLR 06/02 A3047 RMK AO2 SLP317
T00610017 $





000
SAUS42 KCHS 220957
MTRNBC
METAR KNBC 220956Z AUTO 04008KT 10SM CLR 07/02 A3046 RMK AO2 SLP314
T00670017 $





000
SAUS42 KCHS 220957
MTRNBC
METAR KNBC 220956Z AUTO 04008KT 10SM CLR 07/02 A3046 RMK AO2 SLP314
T00670017 $





000
SAUS42 KCHS 220857
MTRNBC
METAR KNBC 220856Z AUTO 03008KT 10SM CLR 06/02 A3046 RMK AO2 SLP315
T00610022 50004 $





000
SAUS42 KCHS 220757
MTRNBC
METAR KNBC 220756Z AUTO 04008KT 10SM CLR 07/02 A3047 RMK AO2 SLP317
T00670022 $





000
SAUS42 KCHS 220657
MTRNBC
METAR KNBC 220656Z AUTO 05008KT 10SM CLR 08/03 A3045 RMK AO2 SLP312
T00830028 $





000
SAUS42 KCHS 220557
MTRNBC
METAR KNBC 220556Z AUTO 05006KT 10SM CLR 08/04 A3045 RMK AO2 SLP311
T00830044 10128 20072 53001 $





000
SAUS42 KCHS 220457
MTRNBC
METAR KNBC 220456Z AUTO 05008KT 10SM CLR 09/05 A3044 RMK AO2 SLP309
T00890050 402110039 $





000
SAUS42 KCHS 220357
MTRNBC
METAR KNBC 220356Z AUTO 04008KT 10SM CLR 09/06 A3045 RMK AO2 SLP310
T00940056 $





000
SAUS42 KCHS 220357
MTRNBC
METAR KNBC 220356Z AUTO 04008KT 10SM CLR 09/06 A3045 RMK AO2 SLP310
T00940056 $





000
SAUS42 KCHS 220257
MTRNBC
METAR KNBC 220256Z 05007KT 10SM CLR 09/06 A3044 RMK AO2 SLP310 LAST
T00940061 51012 $





000
SAUS42 KCHS 220157
MTRNBC
METAR KNBC 220156Z 05005KT 10SM CLR 10/07 A3044 RMK AO2 SLP307
T01000067 $





000
SAUS42 KCHS 220057
MTRNBC
METAR KNBC 220056Z 08004KT 10SM CLR 11/07 A3042 RMK AO2 SLP302
T01110067 $





000
SAUS42 KCHS 212357
MTRNBC
METAR KNBC 212356Z 08004KT 10SM CLR 13/07 A3041 RMK AO2 SLP298
T01280072 10211 20122 51018 $





000
SAUS42 KCHS 212257
MTRNBC
METAR KNBC 212256Z 00000KT 10SM CLR 12/08 A3039 RMK AO2 SLP292
T01220078 $





000
SAUS42 KCHS 212157
MTRNBC
METAR KNBC 212156Z 11007KT 10SM CLR 15/07 A3038 RMK AO2 SLP288
T01500072 $





000
SAUS42 KCHS 212057
MTRNBC
METAR KNBC 212056Z 10007KT 10SM CLR 18/05 A3036 RMK AO2 SLP280
T01830050 53001 $





000
SAUS42 KCHS 212001
MTRNBC
METAR KNBC 211956Z 03005KT 10SM CLR 21/M03 A3034 RMK AO2 SLP275
T02061033 $





000
SAUS42 KCHS 211901
MTRNBC
METAR KNBC 211856Z 03008KT 10SM CLR 21/M03 A3034 RMK AO2 SLP275
T02061033 $





000
SAUS42 KCHS 211801
MTRNBC
METAR KNBC 211756Z 03006KT 10SM CLR 20/M01 A3035 RMK AO2 SLP279
T02001011 10200 20039 58012 $





000
SAUS42 KCHS 211658
MTRNBC
METAR KNBC 211656Z 36006KT 10SM CLR 18/01 A3037 RMK AO2 SLP286
T01830006 $





000
SAUS42 KCHS 211557
MTRNBC
METAR KNBC 211556Z 01008KT 10SM FEW250 17/01 A3039 RMK AO2 SLP291
T01670011 $





000
SAUS42 KCHS 211557
MTRNBC
METAR KNBC 211556Z 01008KT 10SM FEW250 17/01 A3039 RMK AO2 SLP291
T01670011 $





000
SAUS42 KCHS 211457
MTRNBC
METAR KNBC 211456Z 35009KT 10SM FEW250 14/02 A3039 RMK AO2 SLP291
T01440017 51024 $





000
SAUS42 KCHS 211357
MTRNBC
METAR KNBC 211356Z 33006KT 10SM FEW250 12/03 A3038 RMK AO2 SLP287
T01220033 $





000
SAUS42 KCHS 211257
MTRNBC
METAR KNBC 211256Z 25003KT 10SM FEW250 06/04 A3035 RMK AO2 SLP278
T00610039 $





000
SAUS42 KCHS 211157
MTRNBC
METAR KNBC 211156Z 00000KT 10SM FEW100 04/02 A3032 RMK AO2 SLP267
T00390017 10100 20039 51017 $





000
SAUS42 KCHS 211138
MTRNBC
SPECI KNBC 211137Z 00000KT 10SM FEW100 06/03 A3032 RMK AO2 FIRST
T00560028 $





000
SAUS42 KCHS 211057
MTRNBC
METAR KNBC 211056Z AUTO 33003KT 10SM CLR 06/03 A3031 RMK AO2 SLP263
T00610028 $





000
SAUS42 KCHS 210957
MTRNBC
METAR KNBC 210956Z AUTO 25003KT 10SM CLR 06/03 A3029 RMK AO2 SLP256
T00610028 $





000
SAUS42 KCHS 210857
MTRNBC
METAR KNBC 210856Z AUTO 31003KT 10SM CLR 07/03 A3027 RMK AO2 SLP250
T00720028 53003 $





000
SAUS42 KCHS 210757
MTRNBC
METAR KNBC 210756Z AUTO 28006KT 10SM CLR 09/03 A3026 RMK AO2 SLP247
T00940033 $





000
SAUS42 KCHS 210657
MTRNBC
METAR KNBC 210656Z AUTO 28005KT 10SM CLR 09/03 A3026 RMK AO2 SLP248
T00940028 $





000
SAUS42 KCHS 210557
MTRNBC
METAR KNBC 210556Z AUTO 28005KT 10SM CLR 09/02 A3026 RMK AO2 SLP247
T00940022 10100 20061 50004 $





000
SAUS42 KCHS 210457
MTRNBC
METAR KNBC 210456Z 23007KT 10SM CLR 07/02 A3026 RMK AO2 SLP249
T00720017 401831022 $





000
SAUS42 KCHS 210357
MTRNBC
METAR KNBC 210356Z 25008KT 10SM CLR 09/02 A3025 RMK AO2 SLP243 LAST
T00940017 $





000
SAUS42 KCHS 210257
MTRNBC
METAR KNBC 210256Z 23006KT 10SM CLR 08/04 A3025 RMK AO2 SLP243
T00830039 51012 $





000
SAUS42 KCHS 210157
MTRNBC
METAR KNBC 210156Z 22006KT 10SM CLR 09/04 A3024 RMK AO2 SLP239
T00940044 $





000
SAUS42 KCHS 210057
MTRNBC
METAR KNBC 210056Z 23006KT 10SM CLR 10/04 A3023 RMK AO2 SLP236
T01000044 $





000
SAUS42 KCHS 202357
MTRNBC
METAR KNBC 202356Z 22004KT 10SM CLR 10/03 A3021 RMK AO2 SLP231
T01000033 10183 20100 53014 $





000
SAUS42 KCHS 202257
MTRNBC
METAR KNBC 202256Z 18005KT 10SM BKN250 11/02 A3019 RMK AO2 SLP224
T01110022 $





000
SAUS42 KCHS 202157
MTRNBC
METAR KNBC 202156Z 24007KT 10SM BKN250 16/00 A3018 RMK AO2 SLP220
T01560000 $





000
SAUS42 KCHS 202057
MTRNBC
METAR KNBC 202056Z 26007KT 10SM BKN250 18/M01 A3017 RMK AO2 SLP218
T01781011 56015 $





000
SAUS42 KCHS 201957
MTRNBC
METAR KNBC 201956Z 23011KT 10SM BKN250 18/M01 A3018 RMK AO2 SLP218
T01781011





    US Dept of Commerce
    National Oceanic and Atmospheric Administration
    National Weather Service
    1325 East West Highway
    Silver Spring, MD 20910
    Page Author: NWS Internet Services Team
Disclaimer
Information Quality
Credits
Glossary
Privacy Policy
Freedom of Information Act (FOIA)
About Us
Career Opportunities